sensor_id;sensor_type;location;lat;lon;timestamp;temperature;humidity
15713;DHT22;7957;51.608;6.916;2023-04-15T00:01:49;8.30;99.90
15713;DHT22;7957;51.608;6.916;2023-04-15T00:04:17;8.30;99.90
15713;DHT22;7957;51.608;6.916;2023-04-15T00:06:49;8.20;99.90
15713;DHT22;7957;51.608;6.916;2023-04-15T00:09:19;8.20;99.90
15713;DHT22;7957;51.608;6.916;2023-04-15T00:11:46;8.20;99.90
15713;DHT22;7957;51.608;6.916;2023-04-15T00:14:13;8.20;99.90
15713;DHT22;7957;51.608;6.916;2023-04-15T00:16:40;8.20;99.90
15713;DHT22;7957;51.608;6.916;2023-04-15T00:19:07;8.10;99.90
15713;DHT22;7957;51.608;6.916;2023-04-15T00:21:34;8.10;99.90
15713;DHT22;7957;51.608;6.916;2023-04-15T00:24:01;8.10;1.00
15713;DHT22;7957;51.608;6.916;2023-04-15T00:26:29;8.00;1.00
15713;DHT22;7957;51.608;6.916;2023-04-15T00:28:57;8.00;1.00
15713;DHT22;7957;51.608;6.916;2023-04-15T00:31:24;8.00;1.00
15713;DHT22;7957;51.608;6.916;2023-04-15T00:33:51;8.00;1.00
15713;DHT22;7957;51.608;6.916;2023-04-15T00:36:18;8.00;1.00
15713;DHT22;7957;51.608;6.916;2023-04-15T00:38:45;8.00;1.00
15713;DHT22;7957;51.608;6.916;2023-04-15T00:41:12;8.00;1.00
15713;DHT22;7957;51.608;6.916;2023-04-15T00:43:41;8.00;1.00
15713;DHT22;7957;51.608;6.916;2023-04-15T00:46:09;8.00;1.00
15713;DHT22;7957;51.608;6.916;2023-04-15T00:48:38;8.00;1.00
15713;DHT22;7957;51.608;6.916;2023-04-15T00:51:06;7.90;1.00
15713;DHT22;7957;51.608;6.916;2023-04-15T00:53:34;8.00;1.00
15713;DHT22;7957;51.608;6.916;2023-04-15T00:56:01;8.00;1.00
15713;DHT22;7957;51.608;6.916;2023-04-15T00:58:28;8.00;1.00
15713;DHT22;7957;51.608;6.916;2023-04-15T01:00:56;8.00;1.00
15713;DHT22;7957;51.608;6.916;2023-04-15T01:03:24;8.00;1.00
15713;DHT22;7957;51.608;6.916;2023-04-15T01:05:51;7.90;1.00
15713;DHT22;7957;51.608;6.916;2023-04-15T01:08:23;8.00;1.00
15713;DHT22;7957;51.608;6.916;2023-04-15T01:10:52;8.00;1.00
15713;DHT22;7957;51.608;6.916;2023-04-15T01:13:19;8.00;1.00
15713;DHT22;7957;51.608;6.916;2023-04-15T01:15:46;8.10;1.00
15713;DHT22;7957;51.608;6.916;2023-04-15T01:18:15;8.10;1.00
15713;DHT22;7957;51.608;6.916;2023-04-15T01:20:42;8.10;1.00
15713;DHT22;7957;51.608;6.916;2023-04-15T01:23:09;8.00;1.00
15713;DHT22;7957;51.608;6.916;2023-04-15T01:25:38;8.10;1.00
15713;DHT22;7957;51.608;6.916;2023-04-15T01:28:06;8.10;1.00
15713;DHT22;7957;51.608;6.916;2023-04-15T01:30:34;8.10;1.00
15713;DHT22;7957;51.608;6.916;2023-04-15T01:33:01;8.10;1.00
15713;DHT22;7957;51.608;6.916;2023-04-15T01:35:28;8.00;1.00
15713;DHT22;7957;51.608;6.916;2023-04-15T01:38:02;8.00;1.00
15713;DHT22;7957;51.608;6.916;2023-04-15T01:40:30;8.00;1.00
15713;DHT22;7957;51.608;6.916;2023-04-15T01:42:58;8.00;1.00
15713;DHT22;7957;51.608;6.916;2023-04-15T01:45:25;7.90;1.00
15713;DHT22;7957;51.608;6.916;2023-04-15T01:47:52;7.90;1.00
15713;DHT22;7957;51.608;6.916;2023-04-15T01:50:19;7.90;1.00
15713;DHT22;7957;51.608;6.916;2023-04-15T01:52:46;7.90;1.00
15713;DHT22;7957;51.608;6.916;2023-04-15T01:55:13;7.80;1.00
15713;DHT22;7957;51.608;6.916;2023-04-15T01:57:40;7.80;1.00
15713;DHT22;7957;51.608;6.916;2023-04-15T02:00:11;7.80;1.00
15713;DHT22;7957;51.608;6.916;2023-04-15T02:02:38;7.80;1.00
15713;DHT22;7957;51.608;6.916;2023-04-15T02:05:05;7.70;1.00
15713;DHT22;7957;51.608;6.916;2023-04-15T02:07:32;7.70;1.00
15713;DHT22;7957;51.608;6.916;2023-04-15T02:09:59;7.70;1.00
15713;DHT22;7957;51.608;6.916;2023-04-15T02:12:26;7.70;1.00
15713;DHT22;7957;51.608;6.916;2023-04-15T02:14:53;7.70;1.00
15713;DHT22;7957;51.608;6.916;2023-04-15T02:17:21;7.60;1.00
15713;DHT22;7957;51.608;6.916;2023-04-15T02:19:48;7.60;1.00
15713;DHT22;7957;51.608;6.916;2023-04-15T02:22:15;7.50;1.00
15713;DHT22;7957;51.608;6.916;2023-04-15T02:24:43;7.60;26.60
15713;DHT22;7957;51.608;6.916;2023-04-15T02:27:10;7.60;32.50
15713;DHT22;7957;51.608;6.916;2023-04-15T02:29:40;7.60;27.00
15713;DHT22;7957;51.608;6.916;2023-04-15T02:32:09;7.50;35.70
15713;DHT22;7957;51.608;6.916;2023-04-15T02:34:38;7.50;78.70
15713;DHT22;7957;51.608;6.916;2023-04-15T02:37:07;7.60;99.90
15713;DHT22;7957;51.608;6.916;2023-04-15T02:39:34;7.60;99.90
15713;DHT22;7957;51.608;6.916;2023-04-15T02:42:01;7.50;99.90
15713;DHT22;7957;51.608;6.916;2023-04-15T02:44:29;7.50;99.90
15713;DHT22;7957;51.608;6.916;2023-04-15T02:46:57;7.50;99.90
15713;DHT22;7957;51.608;6.916;2023-04-15T02:49:24;7.50;99.90
15713;DHT22;7957;51.608;6.916;2023-04-15T02:51:56;7.60;99.90
15713;DHT22;7957;51.608;6.916;2023-04-15T02:54:25;7.50;99.90
15713;DHT22;7957;51.608;6.916;2023-04-15T02:56:53;7.50;99.90
15713;DHT22;7957;51.608;6.916;2023-04-15T02:59:21;7.40;99.90
15713;DHT22;7957;51.608;6.916;2023-04-15T03:01:48;7.40;99.90
15713;DHT22;7957;51.608;6.916;2023-04-15T03:04:15;7.40;99.90
15713;DHT22;7957;51.608;6.916;2023-04-15T03:06:42;7.40;99.90
15713;DHT22;7957;51.608;6.916;2023-04-15T03:09:10;7.30;99.90
15713;DHT22;7957;51.608;6.916;2023-04-15T03:11:38;7.20;99.90
15713;DHT22;7957;51.608;6.916;2023-04-15T03:14:06;7.20;99.90
15713;DHT22;7957;51.608;6.916;2023-04-15T03:16:33;7.20;99.90
15713;DHT22;7957;51.608;6.916;2023-04-15T03:19:00;7.20;99.90
15713;DHT22;7957;51.608;6.916;2023-04-15T03:21:27;7.10;99.90
15713;DHT22;7957;51.608;6.916;2023-04-15T03:23:54;7.20;99.90
15713;DHT22;7957;51.608;6.916;2023-04-15T03:26:27;7.20;99.90
15713;DHT22;7957;51.608;6.916;2023-04-15T03:28:54;7.20;99.90
15713;DHT22;7957;51.608;6.916;2023-04-15T03:31:21;7.10;99.90
15713;DHT22;7957;51.608;6.916;2023-04-15T03:33:48;7.20;1.00
15713;DHT22;7957;51.608;6.916;2023-04-15T03:36:16;7.20;1.00
15713;DHT22;7957;51.608;6.916;2023-04-15T03:38:43;7.10;1.00
15713;DHT22;7957;51.608;6.916;2023-04-15T03:41:10;7.10;1.00
15713;DHT22;7957;51.608;6.916;2023-04-15T03:43:39;7.10;1.00
15713;DHT22;7957;51.608;6.916;2023-04-15T03:46:06;7.10;1.00
15713;DHT22;7957;51.608;6.916;2023-04-15T03:48:33;7.10;1.00
15713;DHT22;7957;51.608;6.916;2023-04-15T03:51:00;7.10;1.00
15713;DHT22;7957;51.608;6.916;2023-04-15T03:53:27;7.10;1.00
15713;DHT22;7957;51.608;6.916;2023-04-15T03:55:53;7.00;1.00
15713;DHT22;7957;51.608;6.916;2023-04-15T03:58:20;7.00;1.00
15713;DHT22;7957;51.608;6.916;2023-04-15T04:00:49;7.00;1.00
15713;DHT22;7957;51.608;6.916;2023-04-15T04:03:16;7.00;1.00
15713;DHT22;7957;51.608;6.916;2023-04-15T04:05:43;7.00;1.00
15713;DHT22;7957;51.608;6.916;2023-04-15T04:08:10;6.90;1.00
15713;DHT22;7957;51.608;6.916;2023-04-15T04:10:38;6.90;1.00
15713;DHT22;7957;51.608;6.916;2023-04-15T04:13:05;6.90;1.00
15713;DHT22;7957;51.608;6.916;2023-04-15T04:15:32;6.90;1.00
15713;DHT22;7957;51.608;6.916;2023-04-15T04:18:00;6.80;1.00
15713;DHT22;7957;51.608;6.916;2023-04-15T04:20:28;6.80;1.00
15713;DHT22;7957;51.608;6.916;2023-04-15T04:22:56;6.80;1.00
15713;DHT22;7957;51.608;6.916;2023-04-15T04:25:23;6.80;1.00
15713;DHT22;7957;51.608;6.916;2023-04-15T04:27:50;6.80;13.00
15713;DHT22;7957;51.608;6.916;2023-04-15T04:30:17;6.80;46.00
15713;DHT22;7957;51.608;6.916;2023-04-15T04:32:44;6.90;62.00
15713;DHT22;7957;51.608;6.916;2023-04-15T04:35:13;6.80;93.40
15713;DHT22;7957;51.608;6.916;2023-04-15T04:37:40;6.80;90.80
15713;DHT22;7957;51.608;6.916;2023-04-15T04:40:08;6.80;99.90
15713;DHT22;7957;51.608;6.916;2023-04-15T04:42:35;6.70;99.90
15713;DHT22;7957;51.608;6.916;2023-04-15T04:45:02;6.70;99.90
15713;DHT22;7957;51.608;6.916;2023-04-15T04:47:30;6.70;99.90
15713;DHT22;7957;51.608;6.916;2023-04-15T04:49:57;6.70;99.90
15713;DHT22;7957;51.608;6.916;2023-04-15T04:52:25;6.70;99.90
15713;DHT22;7957;51.608;6.916;2023-04-15T04:54:52;6.70;99.90
15713;DHT22;7957;51.608;6.916;2023-04-15T04:57:19;6.60;99.90
15713;DHT22;7957;51.608;6.916;2023-04-15T04:59:47;6.60;99.90
15713;DHT22;7957;51.608;6.916;2023-04-15T05:02:13;6.60;99.90
15713;DHT22;7957;51.608;6.916;2023-04-15T05:04:40;6.60;99.90
15713;DHT22;7957;51.608;6.916;2023-04-15T05:07:07;6.60;99.90
15713;DHT22;7957;51.608;6.916;2023-04-15T05:09:36;6.60;99.90
15713;DHT22;7957;51.608;6.916;2023-04-15T05:12:04;6.60;99.90
15713;DHT22;7957;51.608;6.916;2023-04-15T05:14:31;6.60;99.90
15713;DHT22;7957;51.608;6.916;2023-04-15T05:16:58;6.60;1.00
15713;DHT22;7957;51.608;6.916;2023-04-15T05:19:25;6.60;1.00
15713;DHT22;7957;51.608;6.916;2023-04-15T05:21:52;6.60;1.00
15713;DHT22;7957;51.608;6.916;2023-04-15T05:24:19;6.60;1.00
15713;DHT22;7957;51.608;6.916;2023-04-15T05:26:49;6.60;1.00
15713;DHT22;7957;51.608;6.916;2023-04-15T05:29:16;6.60;1.00
15713;DHT22;7957;51.608;6.916;2023-04-15T05:31:43;6.60;1.00
15713;DHT22;7957;51.608;6.916;2023-04-15T05:34:10;6.60;1.00
15713;DHT22;7957;51.608;6.916;2023-04-15T05:36:37;6.60;1.00
15713;DHT22;7957;51.608;6.916;2023-04-15T05:39:04;6.60;1.00
15713;DHT22;7957;51.608;6.916;2023-04-15T05:41:31;6.70;1.00
15713;DHT22;7957;51.608;6.916;2023-04-15T05:44:00;6.70;1.00
15713;DHT22;7957;51.608;6.916;2023-04-15T05:46:27;6.70;1.00
15713;DHT22;7957;51.608;6.916;2023-04-15T05:48:54;6.70;1.00
15713;DHT22;7957;51.608;6.916;2023-04-15T05:51:21;6.70;9.40
15713;DHT22;7957;51.608;6.916;2023-04-15T05:53:48;6.70;47.50
15713;DHT22;7957;51.608;6.916;2023-04-15T05:56:15;6.70;98.80
15713;DHT22;7957;51.608;6.916;2023-04-15T05:58:42;6.70;99.90
15713;DHT22;7957;51.608;6.916;2023-04-15T06:01:10;6.70;99.90
15713;DHT22;7957;51.608;6.916;2023-04-15T06:03:37;6.70;99.90
15713;DHT22;7957;51.608;6.916;2023-04-15T06:06:04;6.80;99.90
15713;DHT22;7957;51.608;6.916;2023-04-15T06:08:32;6.80;99.90
15713;DHT22;7957;51.608;6.916;2023-04-15T06:10:59;6.80;99.90
15713;DHT22;7957;51.608;6.916;2023-04-15T06:13:26;6.80;99.90
15713;DHT22;7957;51.608;6.916;2023-04-15T06:15:53;6.80;1.00
15713;DHT22;7957;51.608;6.916;2023-04-15T06:18:22;6.90;1.00
15713;DHT22;7957;51.608;6.916;2023-04-15T06:20:49;6.90;1.00
15713;DHT22;7957;51.608;6.916;2023-04-15T06:23:16;7.00;1.00
15713;DHT22;7957;51.608;6.916;2023-04-15T06:25:43;7.00;1.00
15713;DHT22;7957;51.608;6.916;2023-04-15T06:28:10;7.10;1.00
15713;DHT22;7957;51.608;6.916;2023-04-15T06:30:37;7.20;1.00
15713;DHT22;7957;51.608;6.916;2023-04-15T06:33:04;7.20;1.00
15713;DHT22;7957;51.608;6.916;2023-04-15T06:35:33;7.30;33.80
15713;DHT22;7957;51.608;6.916;2023-04-15T06:38:00;7.40;86.80
15713;DHT22;7957;51.608;6.916;2023-04-15T06:40:27;7.50;99.90
15713;DHT22;7957;51.608;6.916;2023-04-15T06:42:54;7.50;99.90
15713;DHT22;7957;51.608;6.916;2023-04-15T06:45:21;7.60;99.90
15713;DHT22;7957;51.608;6.916;2023-04-15T06:47:48;7.70;99.90
15713;DHT22;7957;51.608;6.916;2023-04-15T06:50:15;7.70;99.90
15713;DHT22;7957;51.608;6.916;2023-04-15T06:52:45;7.70;93.20
15713;DHT22;7957;51.608;6.916;2023-04-15T06:55:12;7.80;21.40
15713;DHT22;7957;51.608;6.916;2023-04-15T06:57:39;7.80;1.00
15713;DHT22;7957;51.608;6.916;2023-04-15T07:00:07;7.80;1.00
15713;DHT22;7957;51.608;6.916;2023-04-15T07:02:35;7.90;1.00
15713;DHT22;7957;51.608;6.916;2023-04-15T07:05:03;7.90;1.00
15713;DHT22;7957;51.608;6.916;2023-04-15T07:07:32;7.90;1.00
15713;DHT22;7957;51.608;6.916;2023-04-15T07:10:01;7.90;1.00
15713;DHT22;7957;51.608;6.916;2023-04-15T07:12:28;8.00;1.00
15713;DHT22;7957;51.608;6.916;2023-04-15T07:14:55;8.00;1.00
15713;DHT22;7957;51.608;6.916;2023-04-15T07:17:22;8.00;1.00
15713;DHT22;7957;51.608;6.916;2023-04-15T07:19:49;8.10;1.00
15713;DHT22;7957;51.608;6.916;2023-04-15T07:22:16;8.10;1.00
15713;DHT22;7957;51.608;6.916;2023-04-15T07:24:43;8.10;1.00
15713;DHT22;7957;51.608;6.916;2023-04-15T07:27:11;8.20;1.00
15713;DHT22;7957;51.608;6.916;2023-04-15T07:29:39;8.20;99.90
15713;DHT22;7957;51.608;6.916;2023-04-15T07:32:05;8.30;99.90
15713;DHT22;7957;51.608;6.916;2023-04-15T07:34:34;8.30;99.90
15713;DHT22;7957;51.608;6.916;2023-04-15T07:37:02;8.30;99.90
15713;DHT22;7957;51.608;6.916;2023-04-15T07:39:29;8.40;99.90
15713;DHT22;7957;51.608;6.916;2023-04-15T07:41:57;8.50;99.90
15713;DHT22;7957;51.608;6.916;2023-04-15T07:44:26;8.60;99.90
15713;DHT22;7957;51.608;6.916;2023-04-15T07:46:52;8.80;99.90
15713;DHT22;7957;51.608;6.916;2023-04-15T07:49:19;8.90;99.90
15713;DHT22;7957;51.608;6.916;2023-04-15T07:51:46;9.00;99.90
15713;DHT22;7957;51.608;6.916;2023-04-15T07:54:14;9.10;99.90
15713;DHT22;7957;51.608;6.916;2023-04-15T07:56:41;9.20;99.90
15713;DHT22;7957;51.608;6.916;2023-04-15T07:59:08;9.30;99.90
15713;DHT22;7957;51.608;6.916;2023-04-15T08:01:37;9.40;99.90
15713;DHT22;7957;51.608;6.916;2023-04-15T08:04:04;9.50;99.90
15713;DHT22;7957;51.608;6.916;2023-04-15T08:06:31;9.60;99.90
15713;DHT22;7957;51.608;6.916;2023-04-15T08:08:58;9.80;43.70
15713;DHT22;7957;51.608;6.916;2023-04-15T08:11:26;9.80;1.00
15713;DHT22;7957;51.608;6.916;2023-04-15T08:13:53;10.00;1.00
15713;DHT22;7957;51.608;6.916;2023-04-15T08:16:21;10.20;1.00
15713;DHT22;7957;51.608;6.916;2023-04-15T08:18:51;10.40;1.00
15713;DHT22;7957;51.608;6.916;2023-04-15T08:21:19;10.40;1.00
15713;DHT22;7957;51.608;6.916;2023-04-15T08:23:47;10.50;99.90
15713;DHT22;7957;51.608;6.916;2023-04-15T08:26:15;10.50;99.90
15713;DHT22;7957;51.608;6.916;2023-04-15T08:28:44;10.60;99.90
15713;DHT22;7957;51.608;6.916;2023-04-15T08:31:11;10.70;39.00
15713;DHT22;7957;51.608;6.916;2023-04-15T08:33:38;10.70;1.00
15713;DHT22;7957;51.608;6.916;2023-04-15T08:36:06;10.80;1.00
15713;DHT22;7957;51.608;6.916;2023-04-15T08:38:34;10.80;1.00
15713;DHT22;7957;51.608;6.916;2023-04-15T08:41:03;10.90;1.00
15713;DHT22;7957;51.608;6.916;2023-04-15T08:43:33;10.90;1.00
15713;DHT22;7957;51.608;6.916;2023-04-15T08:46:03;10.80;99.90
15713;DHT22;7957;51.608;6.916;2023-04-15T08:48:32;10.80;99.90
15713;DHT22;7957;51.608;6.916;2023-04-15T08:50:59;10.80;99.90
15713;DHT22;7957;51.608;6.916;2023-04-15T08:53:29;11.00;99.90
15713;DHT22;7957;51.608;6.916;2023-04-15T08:55:59;11.00;99.90
15713;DHT22;7957;51.608;6.916;2023-04-15T08:58:29;11.20;99.90
15713;DHT22;7957;51.608;6.916;2023-04-15T09:00:56;11.20;82.40
15713;DHT22;7957;51.608;6.916;2023-04-15T09:03:23;11.20;20.10
15713;DHT22;7957;51.608;6.916;2023-04-15T09:05:51;11.40;33.50
15713;DHT22;7957;51.608;6.916;2023-04-15T09:08:18;11.50;1.00
15713;DHT22;7957;51.608;6.916;2023-04-15T09:10:46;11.40;1.00
15713;DHT22;7957;51.608;6.916;2023-04-15T09:13:13;11.40;1.00
15713;DHT22;7957;51.608;6.916;2023-04-15T09:15:40;11.40;1.00
15713;DHT22;7957;51.608;6.916;2023-04-15T09:18:08;11.50;1.00
15713;DHT22;7957;51.608;6.916;2023-04-15T09:20:38;11.60;1.00
15713;DHT22;7957;51.608;6.916;2023-04-15T09:23:11;11.70;1.00
15713;DHT22;7957;51.608;6.916;2023-04-15T09:25:39;11.70;1.00
15713;DHT22;7957;51.608;6.916;2023-04-15T09:28:08;11.70;1.00
15713;DHT22;7957;51.608;6.916;2023-04-15T09:30:36;11.50;1.00
15713;DHT22;7957;51.608;6.916;2023-04-15T09:33:03;11.80;1.00
15713;DHT22;7957;51.608;6.916;2023-04-15T09:35:33;12.00;1.00
15713;DHT22;7957;51.608;6.916;2023-04-15T09:38:06;12.20;1.00
15713;DHT22;7957;51.608;6.916;2023-04-15T09:40:35;12.10;1.00
15713;DHT22;7957;51.608;6.916;2023-04-15T09:43:03;12.20;1.00
15713;DHT22;7957;51.608;6.916;2023-04-15T09:45:33;12.00;1.00
15713;DHT22;7957;51.608;6.916;2023-04-15T09:48:15;12.00;1.00
15713;DHT22;7957;51.608;6.916;2023-04-15T09:50:42;12.10;1.00
15713;DHT22;7957;51.608;6.916;2023-04-15T09:53:09;12.00;99.90
15713;DHT22;7957;51.608;6.916;2023-04-15T09:55:37;12.00;99.90
15713;DHT22;7957;51.608;6.916;2023-04-15T09:58:08;12.00;99.90
15713;DHT22;7957;51.608;6.916;2023-04-15T10:00:36;12.10;99.90
15713;DHT22;7957;51.608;6.916;2023-04-15T10:03:04;12.20;99.90
15713;DHT22;7957;51.608;6.916;2023-04-15T10:05:32;12.00;99.90
15713;DHT22;7957;51.608;6.916;2023-04-15T10:08:00;12.10;99.90
15713;DHT22;7957;51.608;6.916;2023-04-15T10:10:28;12.10;99.90
15713;DHT22;7957;51.608;6.916;2023-04-15T10:12:58;12.10;99.90
15713;DHT22;7957;51.608;6.916;2023-04-15T10:15:27;12.20;99.90
15713;DHT22;7957;51.608;6.916;2023-04-15T10:17:57;12.30;99.90
15713;DHT22;7957;51.608;6.916;2023-04-15T10:20:28;12.50;99.90
15713;DHT22;7957;51.608;6.916;2023-04-15T10:22:55;12.70;99.90
15713;DHT22;7957;51.608;6.916;2023-04-15T10:25:23;12.80;99.90
15713;DHT22;7957;51.608;6.916;2023-04-15T10:27:52;12.90;99.90
15713;DHT22;7957;51.608;6.916;2023-04-15T10:30:20;12.90;99.90
15713;DHT22;7957;51.608;6.916;2023-04-15T10:32:47;12.90;99.90
15713;DHT22;7957;51.608;6.916;2023-04-15T10:35:17;13.00;93.30
15713;DHT22;7957;51.608;6.916;2023-04-15T10:37:45;13.10;56.20
15713;DHT22;7957;51.608;6.916;2023-04-15T10:40:25;13.10;27.00
15713;DHT22;7957;51.608;6.916;2023-04-15T10:42:54;13.20;4.40
15713;DHT22;7957;51.608;6.916;2023-04-15T10:45:24;13.20;1.00
15713;DHT22;7957;51.608;6.916;2023-04-15T10:47:54;13.20;1.00
15713;DHT22;7957;51.608;6.916;2023-04-15T10:50:25;13.20;1.00
15713;DHT22;7957;51.608;6.916;2023-04-15T10:52:52;13.20;1.00
15713;DHT22;7957;51.608;6.916;2023-04-15T10:55:20;13.20;1.00
15713;DHT22;7957;51.608;6.916;2023-04-15T10:57:51;13.20;1.00
15713;DHT22;7957;51.608;6.916;2023-04-15T11:00:20;13.10;1.00
15713;DHT22;7957;51.608;6.916;2023-04-15T11:02:50;13.10;1.00
15713;DHT22;7957;51.608;6.916;2023-04-15T11:05:18;13.10;1.00
15713;DHT22;7957;51.608;6.916;2023-04-15T11:07:52;13.00;1.00
15713;DHT22;7957;51.608;6.916;2023-04-15T11:10:50;13.00;1.00
15713;DHT22;7957;51.608;6.916;2023-04-15T11:13:20;13.00;1.00
15713;DHT22;7957;51.608;6.916;2023-04-15T11:15:48;13.00;1.00
15713;DHT22;7957;51.608;6.916;2023-04-15T11:18:17;12.90;1.00
15713;DHT22;7957;51.608;6.916;2023-04-15T11:20:45;12.90;1.00
15713;DHT22;7957;51.608;6.916;2023-04-15T11:23:14;12.90;1.00
15713;DHT22;7957;51.608;6.916;2023-04-15T11:25:42;12.90;1.00
15713;DHT22;7957;51.608;6.916;2023-04-15T11:28:11;12.80;1.00
15713;DHT22;7957;51.608;6.916;2023-04-15T11:30:39;12.80;1.00
15713;DHT22;7957;51.608;6.916;2023-04-15T11:33:07;12.70;1.00
15713;DHT22;7957;51.608;6.916;2023-04-15T11:35:35;12.70;1.00
15713;DHT22;7957;51.608;6.916;2023-04-15T11:38:02;12.60;1.00
15713;DHT22;7957;51.608;6.916;2023-04-15T11:40:32;12.50;1.00
15713;DHT22;7957;51.608;6.916;2023-04-15T11:43:05;12.50;1.00
15713;DHT22;7957;51.608;6.916;2023-04-15T11:45:32;12.40;1.00
15713;DHT22;7957;51.608;6.916;2023-04-15T11:48:06;12.40;1.00
15713;DHT22;7957;51.608;6.916;2023-04-15T11:50:33;12.30;1.00
15713;DHT22;7957;51.608;6.916;2023-04-15T11:53:02;12.20;1.00
15713;DHT22;7957;51.608;6.916;2023-04-15T11:55:32;12.20;1.00
15713;DHT22;7957;51.608;6.916;2023-04-15T11:58:11;12.20;1.00
15713;DHT22;7957;51.608;6.916;2023-04-15T12:00:40;12.10;1.00
15713;DHT22;7957;51.608;6.916;2023-04-15T12:03:20;12.10;1.00
15713;DHT22;7957;51.608;6.916;2023-04-15T12:06:06;12.10;1.00
15713;DHT22;7957;51.608;6.916;2023-04-15T12:08:59;12.10;1.00
15713;DHT22;7957;51.608;6.916;2023-04-15T12:11:32;12.10;1.00
15713;DHT22;7957;51.608;6.916;2023-04-15T12:14:04;12.00;1.00
15713;DHT22;7957;51.608;6.916;2023-04-15T12:16:32;12.00;1.00
15713;DHT22;7957;51.608;6.916;2023-04-15T12:19:04;12.00;99.90
15713;DHT22;7957;51.608;6.916;2023-04-15T12:21:36;11.90;99.90
15713;DHT22;7957;51.608;6.916;2023-04-15T12:24:05;11.90;99.90
15713;DHT22;7957;51.608;6.916;2023-04-15T12:26:36;11.90;99.90
15713;DHT22;7957;51.608;6.916;2023-04-15T12:29:04;11.90;99.90
15713;DHT22;7957;51.608;6.916;2023-04-15T12:31:34;11.80;99.90
15713;DHT22;7957;51.608;6.916;2023-04-15T12:34:02;11.80;99.90
15713;DHT22;7957;51.608;6.916;2023-04-15T12:36:30;11.80;99.90
15713;DHT22;7957;51.608;6.916;2023-04-15T12:39:01;11.80;1.00
15713;DHT22;7957;51.608;6.916;2023-04-15T12:41:28;11.80;1.00
15713;DHT22;7957;51.608;6.916;2023-04-15T12:43:57;11.80;1.00
15713;DHT22;7957;51.608;6.916;2023-04-15T12:46:24;11.80;1.00
15713;DHT22;7957;51.608;6.916;2023-04-15T12:48:51;11.80;1.00
15713;DHT22;7957;51.608;6.916;2023-04-15T12:51:19;11.80;1.00
15713;DHT22;7957;51.608;6.916;2023-04-15T12:53:46;11.70;1.00
15713;DHT22;7957;51.608;6.916;2023-04-15T12:56:14;11.70;1.00
15713;DHT22;7957;51.608;6.916;2023-04-15T12:58:41;11.70;1.00
15713;DHT22;7957;51.608;6.916;2023-04-15T13:01:09;11.60;1.00
15713;DHT22;7957;51.608;6.916;2023-04-15T13:03:36;11.70;1.00
15713;DHT22;7957;51.608;6.916;2023-04-15T13:06:03;11.70;1.00
15713;DHT22;7957;51.608;6.916;2023-04-15T13:08:31;11.70;1.00
15713;DHT22;7957;51.608;6.916;2023-04-15T13:10:58;11.70;1.00
15713;DHT22;7957;51.608;6.916;2023-04-15T13:13:26;11.70;1.00
15713;DHT22;7957;51.608;6.916;2023-04-15T13:15:52;11.60;1.00
15713;DHT22;7957;51.608;6.916;2023-04-15T13:18:21;11.60;1.00
15713;DHT22;7957;51.608;6.916;2023-04-15T13:20:48;11.60;1.00
15713;DHT22;7957;51.608;6.916;2023-04-15T13:23:15;11.60;1.00
15713;DHT22;7957;51.608;6.916;2023-04-15T13:25:42;11.60;1.00
15713;DHT22;7957;51.608;6.916;2023-04-15T13:28:10;11.60;1.00
15713;DHT22;7957;51.608;6.916;2023-04-15T13:30:37;11.60;1.00
15713;DHT22;7957;51.608;6.916;2023-04-15T13:33:05;11.60;1.00
15713;DHT22;7957;51.608;6.916;2023-04-15T13:35:33;11.60;1.00
15713;DHT22;7957;51.608;6.916;2023-04-15T13:38:00;11.60;1.00
15713;DHT22;7957;51.608;6.916;2023-04-15T13:40:27;11.60;1.00
15713;DHT22;7957;51.608;6.916;2023-04-15T13:42:54;11.60;1.00
15713;DHT22;7957;51.608;6.916;2023-04-15T13:45:23;11.60;1.00
15713;DHT22;7957;51.608;6.916;2023-04-15T13:47:50;11.60;1.00
15713;DHT22;7957;51.608;6.916;2023-04-15T13:50:17;11.60;1.00
15713;DHT22;7957;51.608;6.916;2023-04-15T13:52:46;11.50;1.00
15713;DHT22;7957;51.608;6.916;2023-04-15T13:55:12;11.50;1.00
15713;DHT22;7957;51.608;6.916;2023-04-15T13:57:39;11.50;1.00
15713;DHT22;7957;51.608;6.916;2023-04-15T14:00:08;11.50;1.00
15713;DHT22;7957;51.608;6.916;2023-04-15T14:02:35;11.40;1.00
15713;DHT22;7957;51.608;6.916;2023-04-15T14:05:02;11.40;1.00
15713;DHT22;7957;51.608;6.916;2023-04-15T14:07:30;11.40;1.00
15713;DHT22;7957;51.608;6.916;2023-04-15T14:09:59;11.30;1.00
15713;DHT22;7957;51.608;6.916;2023-04-15T14:12:25;11.30;1.00
15713;DHT22;7957;51.608;6.916;2023-04-15T14:14:52;11.30;1.00
15713;DHT22;7957;51.608;6.916;2023-04-15T14:17:19;11.30;1.00
15713;DHT22;7957;51.608;6.916;2023-04-15T14:19:46;11.30;1.00
15713;DHT22;7957;51.608;6.916;2023-04-15T14:22:13;11.20;1.00
15713;DHT22;7957;51.608;6.916;2023-04-15T14:24:40;11.20;1.00
15713;DHT22;7957;51.608;6.916;2023-04-15T14:27:08;11.20;1.00
15713;DHT22;7957;51.608;6.916;2023-04-15T14:29:36;11.10;1.00
15713;DHT22;7957;51.608;6.916;2023-04-15T14:32:04;11.10;1.00
15713;DHT22;7957;51.608;6.916;2023-04-15T14:34:31;11.10;1.00
15713;DHT22;7957;51.608;6.916;2023-04-15T14:36:58;11.10;1.00
15713;DHT22;7957;51.608;6.916;2023-04-15T14:39:30;11.00;1.00
15713;DHT22;7957;51.608;6.916;2023-04-15T14:41:57;11.00;1.00
15713;DHT22;7957;51.608;6.916;2023-04-15T14:44:26;11.00;1.00
15713;DHT22;7957;51.608;6.916;2023-04-15T14:46:53;11.00;1.00
15713;DHT22;7957;51.608;6.916;2023-04-15T14:49:20;11.00;1.00
15713;DHT22;7957;51.608;6.916;2023-04-15T14:51:48;10.90;1.00
15713;DHT22;7957;51.608;6.916;2023-04-15T14:54:15;10.90;1.00
15713;DHT22;7957;51.608;6.916;2023-04-15T14:56:42;10.90;1.00
15713;DHT22;7957;51.608;6.916;2023-04-15T14:59:08;10.90;1.00
15713;DHT22;7957;51.608;6.916;2023-04-15T15:01:37;10.90;1.00
15713;DHT22;7957;51.608;6.916;2023-04-15T15:04:04;10.90;1.00
15713;DHT22;7957;51.608;6.916;2023-04-15T15:06:31;10.90;1.00
15713;DHT22;7957;51.608;6.916;2023-04-15T15:08:58;10.80;1.00
15713;DHT22;7957;51.608;6.916;2023-04-15T15:11:26;10.80;1.00
15713;DHT22;7957;51.608;6.916;2023-04-15T15:13:54;10.80;19.30
15713;DHT22;7957;51.608;6.916;2023-04-15T15:16:21;10.80;45.00
15713;DHT22;7957;51.608;6.916;2023-04-15T15:18:49;10.80;76.60
15713;DHT22;7957;51.608;6.916;2023-04-15T15:21:17;10.80;99.90
15713;DHT22;7957;51.608;6.916;2023-04-15T15:23:44;10.70;99.90
15713;DHT22;7957;51.608;6.916;2023-04-15T15:26:12;10.70;99.90
15713;DHT22;7957;51.608;6.916;2023-04-15T15:28:39;10.70;99.90
15713;DHT22;7957;51.608;6.916;2023-04-15T15:31:06;10.70;99.90
15713;DHT22;7957;51.608;6.916;2023-04-15T15:33:33;10.70;99.90
15713;DHT22;7957;51.608;6.916;2023-04-15T15:36:02;10.60;99.90
15713;DHT22;7957;51.608;6.916;2023-04-15T15:38:29;10.60;99.90
15713;DHT22;7957;51.608;6.916;2023-04-15T15:40:56;10.60;99.90
15713;DHT22;7957;51.608;6.916;2023-04-15T15:43:23;10.50;99.90
15713;DHT22;7957;51.608;6.916;2023-04-15T15:45:50;10.50;99.90
15713;DHT22;7957;51.608;6.916;2023-04-15T15:48:19;10.50;99.90
15713;DHT22;7957;51.608;6.916;2023-04-15T15:50:46;10.50;99.90
15713;DHT22;7957;51.608;6.916;2023-04-15T15:53:20;10.50;99.90
15713;DHT22;7957;51.608;6.916;2023-04-15T15:55:48;10.40;1.00
15713;DHT22;7957;51.608;6.916;2023-04-15T15:58:15;10.40;1.00
15713;DHT22;7957;51.608;6.916;2023-04-15T16:00:43;10.40;1.00
15713;DHT22;7957;51.608;6.916;2023-04-15T16:03:10;10.40;1.00
15713;DHT22;7957;51.608;6.916;2023-04-15T16:05:37;10.40;1.00
15713;DHT22;7957;51.608;6.916;2023-04-15T16:08:04;10.30;1.00
15713;DHT22;7957;51.608;6.916;2023-04-15T16:10:33;10.30;1.00